Waasa, Minnesota
Current Conditions -  °F | °C
As of 8:52 PM on Friday 19 Dec 2014 (Local Time) from KELO Reporting Station
Light Snow Light Snow  
Wind Chill: 15°   Ceiling: 800
Heat Index: 23°   Visibility: 7mi
Dew Point: 21°   Wind: 7mph
Humidity: 93%   Direction: 150°SSE
Pressure: 30.13"   Gusts: NA
Location:  47.691°N, 92.2161°W
Report Text: KELO 200252Z AUTO 15006KT 7SM -SN OVC008 M05/M06 A3013 RMK AO2
Loading
Personal Weather Stations






























Interactive Weather Map New forecast layout! Learn more

10-Day Weather Forecast

Advertisements
Track Severe Weather on mobile